sensor_id;sensor_type;location;lat;lon;timestamp;P1;durP1;ratioP1;P2;durP2;ratioP2
7195;SDS011;3639;51.308;5.624;2023-03-19T00:02:17;4.77;;;3.07;;
7195;SDS011;3639;51.308;5.624;2023-03-19T00:04:43;6.33;;;3.27;;
7195;SDS011;3639;51.308;5.624;2023-03-19T00:07:10;4.33;;;3.23;;
7195;SDS011;3639;51.308;5.624;2023-03-19T00:09:36;6.10;;;3.67;;
7195;SDS011;3639;51.308;5.624;2023-03-19T00:12:01;5.00;;;3.83;;
7195;SDS011;3639;51.308;5.624;2023-03-19T00:14:27;5.20;;;3.80;;
7195;SDS011;3639;51.308;5.624;2023-03-19T00:16:53;7.53;;;3.70;;
7195;SDS011;3639;51.308;5.624;2023-03-19T00:19:18;5.80;;;3.87;;
7195;SDS011;3639;51.308;5.624;2023-03-19T00:21:44;6.30;;;4.33;;
7195;SDS011;3639;51.308;5.624;2023-03-19T00:24:10;6.67;;;4.63;;
7195;SDS011;3639;51.308;5.624;2023-03-19T00:26:36;6.50;;;3.73;;
7195;SDS011;3639;51.308;5.624;2023-03-19T00:29:02;6.13;;;3.87;;
7195;SDS011;3639;51.308;5.624;2023-03-19T00:31:29;5.03;;;3.63;;
7195;SDS011;3639;51.308;5.624;2023-03-19T00:33:55;5.20;;;4.37;;
7195;SDS011;3639;51.308;5.624;2023-03-19T00:36:23;7.60;;;4.53;;
7195;SDS011;3639;51.308;5.624;2023-03-19T00:38:49;5.57;;;4.20;;
7195;SDS011;3639;51.308;5.624;2023-03-19T00:41:15;6.43;;;5.13;;
7195;SDS011;3639;51.308;5.624;2023-03-19T00:43:43;6.50;;;4.60;;
7195;SDS011;3639;51.308;5.624;2023-03-19T00:46:09;6.63;;;4.90;;
7195;SDS011;3639;51.308;5.624;2023-03-19T00:48:35;7.23;;;5.10;;
7195;SDS011;3639;51.308;5.624;2023-03-19T00:51:05;5.10;;;4.60;;
7195;SDS011;3639;51.308;5.624;2023-03-19T00:53:32;5.53;;;4.60;;
7195;SDS011;3639;51.308;5.624;2023-03-19T00:56:04;9.23;;;4.90;;
7195;SDS011;3639;51.308;5.624;2023-03-19T00:58:31;8.57;;;4.80;;
7195;SDS011;3639;51.308;5.624;2023-03-19T01:00:57;7.23;;;5.10;;
7195;SDS011;3639;51.308;5.624;2023-03-19T01:03:23;6.60;;;4.70;;
7195;SDS011;3639;51.308;5.624;2023-03-19T01:05:49;7.83;;;5.00;;
7195;SDS011;3639;51.308;5.624;2023-03-19T01:08:15;8.20;;;4.57;;
7195;SDS011;3639;51.308;5.624;2023-03-19T01:10:42;5.63;;;4.33;;
7195;SDS011;3639;51.308;5.624;2023-03-19T01:13:08;8.87;;;4.77;;
7195;SDS011;3639;51.308;5.624;2023-03-19T01:15:35;6.90;;;4.33;;
7195;SDS011;3639;51.308;5.624;2023-03-19T01:18:02;7.33;;;4.43;;
7195;SDS011;3639;51.308;5.624;2023-03-19T01:20:27;7.37;;;4.77;;
7195;SDS011;3639;51.308;5.624;2023-03-19T01:22:53;5.13;;;4.10;;
7195;SDS011;3639;51.308;5.624;2023-03-19T01:25:20;9.00;;;4.53;;
7195;SDS011;3639;51.308;5.624;2023-03-19T01:27:46;7.83;;;5.10;;
7195;SDS011;3639;51.308;5.624;2023-03-19T01:30:12;8.43;;;4.60;;
7195;SDS011;3639;51.308;5.624;2023-03-19T01:32:38;6.25;;;4.40;;
7195;SDS011;3639;51.308;5.624;2023-03-19T01:35:04;6.57;;;4.73;;
7195;SDS011;3639;51.308;5.624;2023-03-19T01:37:30;6.63;;;4.43;;
7195;SDS011;3639;51.308;5.624;2023-03-19T01:39:56;5.80;;;4.67;;
7195;SDS011;3639;51.308;5.624;2023-03-19T01:42:21;8.77;;;4.90;;
7195;SDS011;3639;51.308;5.624;2023-03-19T01:44:47;6.77;;;4.57;;
7195;SDS011;3639;51.308;5.624;2023-03-19T01:47:32;6.00;;;5.00;;
7195;SDS011;3639;51.308;5.624;2023-03-19T01:50:01;6.80;;;4.53;;
7195;SDS011;3639;51.308;5.624;2023-03-19T01:52:28;6.77;;;5.13;;
7195;SDS011;3639;51.308;5.624;2023-03-19T01:54:58;6.93;;;4.27;;
7195;SDS011;3639;51.308;5.624;2023-03-19T01:57:25;6.70;;;4.20;;
7195;SDS011;3639;51.308;5.624;2023-03-19T01:59:54;6.40;;;3.93;;
7195;SDS011;3639;51.308;5.624;2023-03-19T02:02:31;5.90;;;4.33;;
7195;SDS011;3639;51.308;5.624;2023-03-19T02:05:06;4.90;;;4.40;;
7195;SDS011;3639;51.308;5.624;2023-03-19T02:07:33;7.50;;;4.60;;
7195;SDS011;3639;51.308;5.624;2023-03-19T02:10:00;6.17;;;4.07;;
7195;SDS011;3639;51.308;5.624;2023-03-19T02:12:30;7.60;;;4.13;;
7195;SDS011;3639;51.308;5.624;2023-03-19T02:14:56;5.17;;;4.20;;
7195;SDS011;3639;51.308;5.624;2023-03-19T02:17:21;4.27;;;3.70;;
7195;SDS011;3639;51.308;5.624;2023-03-19T02:25:39;4.87;;;3.57;;
7195;SDS011;3639;51.308;5.624;2023-03-19T02:28:09;4.37;;;3.77;;
7195;SDS011;3639;51.308;5.624;2023-03-19T02:30:35;4.20;;;3.17;;
7195;SDS011;3639;51.308;5.624;2023-03-19T02:33:01;4.97;;;3.97;;
7195;SDS011;3639;51.308;5.624;2023-03-19T02:35:28;6.67;;;3.87;;
7195;SDS011;3639;51.308;5.624;2023-03-19T02:37:57;7.33;;;4.00;;
7195;SDS011;3639;51.308;5.624;2023-03-19T02:40:23;4.33;;;3.60;;
7195;SDS011;3639;51.308;5.624;2023-03-19T02:42:53;4.73;;;3.80;;
7195;SDS011;3639;51.308;5.624;2023-03-19T02:45:19;4.10;;;3.53;;
7195;SDS011;3639;51.308;5.624;2023-03-19T02:47:45;6.30;;;3.33;;
7195;SDS011;3639;51.308;5.624;2023-03-19T02:50:11;4.17;;;3.40;;
7195;SDS011;3639;51.308;5.624;2023-03-19T02:52:37;5.40;;;4.33;;
7195;SDS011;3639;51.308;5.624;2023-03-19T02:55:03;4.53;;;3.47;;
7195;SDS011;3639;51.308;5.624;2023-03-19T02:57:29;5.13;;;3.57;;
7195;SDS011;3639;51.308;5.624;2023-03-19T02:59:54;4.30;;;3.67;;
7195;SDS011;3639;51.308;5.624;2023-03-19T03:02:20;4.73;;;3.73;;
7195;SDS011;3639;51.308;5.624;2023-03-19T03:04:46;5.07;;;3.63;;
7195;SDS011;3639;51.308;5.624;2023-03-19T03:07:12;5.37;;;3.50;;
7195;SDS011;3639;51.308;5.624;2023-03-19T03:09:37;5.13;;;3.90;;
7195;SDS011;3639;51.308;5.624;2023-03-19T03:12:03;5.13;;;4.10;;
7195;SDS011;3639;51.308;5.624;2023-03-19T03:14:30;4.50;;;3.70;;
7195;SDS011;3639;51.308;5.624;2023-03-19T03:16:55;4.83;;;3.87;;
7195;SDS011;3639;51.308;5.624;2023-03-19T03:19:22;5.77;;;4.00;;
7195;SDS011;3639;51.308;5.624;2023-03-19T03:21:48;6.60;;;3.87;;
7195;SDS011;3639;51.308;5.624;2023-03-19T03:24:13;5.87;;;3.80;;
7195;SDS011;3639;51.308;5.624;2023-03-19T03:26:39;6.43;;;3.97;;
7195;SDS011;3639;51.308;5.624;2023-03-19T03:29:05;4.73;;;3.83;;
7195;SDS011;3639;51.308;5.624;2023-03-19T03:31:31;4.10;;;3.50;;
7195;SDS011;3639;51.308;5.624;2023-03-19T03:33:57;4.40;;;3.57;;
7195;SDS011;3639;51.308;5.624;2023-03-19T03:36:23;4.37;;;3.50;;
7195;SDS011;3639;51.308;5.624;2023-03-19T03:38:49;6.23;;;4.80;;
7195;SDS011;3639;51.308;5.624;2023-03-19T03:41:15;5.40;;;3.97;;
7195;SDS011;3639;51.308;5.624;2023-03-19T03:43:40;6.40;;;3.93;;
7195;SDS011;3639;51.308;5.624;2023-03-19T03:46:06;7.33;;;4.53;;
7195;SDS011;3639;51.308;5.624;2023-03-19T03:48:32;5.80;;;4.47;;
7195;SDS011;3639;51.308;5.624;2023-03-19T03:50:59;7.53;;;3.57;;
7195;SDS011;3639;51.308;5.624;2023-03-19T03:53:25;8.37;;;4.73;;
7195;SDS011;3639;51.308;5.624;2023-03-19T03:55:50;6.97;;;4.97;;
7195;SDS011;3639;51.308;5.624;2023-03-19T03:58:16;5.83;;;4.37;;
7195;SDS011;3639;51.308;5.624;2023-03-19T04:00:42;6.93;;;4.23;;
7195;SDS011;3639;51.308;5.624;2023-03-19T04:03:07;7.03;;;4.60;;
7195;SDS011;3639;51.308;5.624;2023-03-19T04:05:34;6.23;;;4.33;;
7195;SDS011;3639;51.308;5.624;2023-03-19T04:08:00;7.47;;;4.93;;
7195;SDS011;3639;51.308;5.624;2023-03-19T04:10:27;7.37;;;4.97;;
7195;SDS011;3639;51.308;5.624;2023-03-19T04:12:53;8.20;;;5.00;;
7195;SDS011;3639;51.308;5.624;2023-03-19T04:15:19;11.93;;;5.57;;
7195;SDS011;3639;51.308;5.624;2023-03-19T04:17:45;7.43;;;5.27;;
7195;SDS011;3639;51.308;5.624;2023-03-19T04:20:11;5.87;;;5.00;;
7195;SDS011;3639;51.308;5.624;2023-03-19T04:22:37;5.70;;;4.93;;
7195;SDS011;3639;51.308;5.624;2023-03-19T04:25:03;8.30;;;5.30;;
7195;SDS011;3639;51.308;5.624;2023-03-19T04:27:29;8.33;;;5.90;;
7195;SDS011;3639;51.308;5.624;2023-03-19T04:29:55;6.27;;;4.87;;
7195;SDS011;3639;51.308;5.624;2023-03-19T04:32:20;8.50;;;5.77;;
7195;SDS011;3639;51.308;5.624;2023-03-19T04:34:46;8.67;;;6.27;;
7195;SDS011;3639;51.308;5.624;2023-03-19T04:37:12;8.83;;;5.57;;
7195;SDS011;3639;51.308;5.624;2023-03-19T04:39:38;9.20;;;6.07;;
7195;SDS011;3639;51.308;5.624;2023-03-19T04:42:04;8.63;;;6.30;;
7195;SDS011;3639;51.308;5.624;2023-03-19T04:44:30;9.80;;;6.57;;
7195;SDS011;3639;51.308;5.624;2023-03-19T04:46:56;10.10;;;6.37;;
7195;SDS011;3639;51.308;5.624;2023-03-19T04:49:22;9.70;;;6.60;;
7195;SDS011;3639;51.308;5.624;2023-03-19T04:51:48;8.93;;;6.87;;
7195;SDS011;3639;51.308;5.624;2023-03-19T04:54:14;9.03;;;6.57;;
7195;SDS011;3639;51.308;5.624;2023-03-19T04:56:40;10.13;;;6.70;;
7195;SDS011;3639;51.308;5.624;2023-03-19T04:59:06;12.13;;;7.20;;
7195;SDS011;3639;51.308;5.624;2023-03-19T05:01:32;13.17;;;6.30;;
7195;SDS011;3639;51.308;5.624;2023-03-19T05:03:58;15.43;;;8.50;;
7195;SDS011;3639;51.308;5.624;2023-03-19T05:06:24;11.50;;;7.93;;
7195;SDS011;3639;51.308;5.624;2023-03-19T05:08:51;11.10;;;7.00;;
7195;SDS011;3639;51.308;5.624;2023-03-19T05:11:17;11.60;;;8.20;;
7195;SDS011;3639;51.308;5.624;2023-03-19T05:13:42;12.53;;;7.37;;
7195;SDS011;3639;51.308;5.624;2023-03-19T05:16:08;12.20;;;7.87;;
7195;SDS011;3639;51.308;5.624;2023-03-19T05:18:34;12.07;;;8.13;;
7195;SDS011;3639;51.308;5.624;2023-03-19T05:21:01;12.50;;;7.30;;
7195;SDS011;3639;51.308;5.624;2023-03-19T05:23:28;9.50;;;7.17;;
7195;SDS011;3639;51.308;5.624;2023-03-19T05:25:56;10.10;;;6.67;;
7195;SDS011;3639;51.308;5.624;2023-03-19T05:28:23;11.43;;;7.60;;
7195;SDS011;3639;51.308;5.624;2023-03-19T05:30:49;11.40;;;7.30;;
7195;SDS011;3639;51.308;5.624;2023-03-19T05:33:15;12.43;;;7.17;;
7195;SDS011;3639;51.308;5.624;2023-03-19T05:35:41;10.50;;;7.27;;
7195;SDS011;3639;51.308;5.624;2023-03-19T05:38:06;15.37;;;7.63;;
7195;SDS011;3639;51.308;5.624;2023-03-19T05:40:33;15.80;;;8.00;;
7195;SDS011;3639;51.308;5.624;2023-03-19T05:42:59;11.03;;;6.90;;
7195;SDS011;3639;51.308;5.624;2023-03-19T05:45:25;10.27;;;7.13;;
7195;SDS011;3639;51.308;5.624;2023-03-19T05:47:51;11.97;;;7.73;;
7195;SDS011;3639;51.308;5.624;2023-03-19T05:50:17;12.33;;;8.53;;
7195;SDS011;3639;51.308;5.624;2023-03-19T05:52:43;11.57;;;8.07;;
7195;SDS011;3639;51.308;5.624;2023-03-19T05:55:09;12.33;;;7.93;;
7195;SDS011;3639;51.308;5.624;2023-03-19T05:57:35;13.30;;;7.30;;
7195;SDS011;3639;51.308;5.624;2023-03-19T06:00:01;12.30;;;7.97;;
7195;SDS011;3639;51.308;5.624;2023-03-19T06:02:27;14.77;;;8.10;;
7195;SDS011;3639;51.308;5.624;2023-03-19T06:04:53;14.17;;;8.23;;
7195;SDS011;3639;51.308;5.624;2023-03-19T06:07:19;14.73;;;8.20;;
7195;SDS011;3639;51.308;5.624;2023-03-19T06:09:44;12.87;;;8.70;;
7195;SDS011;3639;51.308;5.624;2023-03-19T06:12:10;21.50;;;9.03;;
7195;SDS011;3639;51.308;5.624;2023-03-19T06:14:36;12.80;;;8.67;;
7195;SDS011;3639;51.308;5.624;2023-03-19T06:17:01;12.60;;;8.13;;
7195;SDS011;3639;51.308;5.624;2023-03-19T06:19:27;14.63;;;9.47;;
7195;SDS011;3639;51.308;5.624;2023-03-19T06:21:53;15.40;;;9.17;;
7195;SDS011;3639;51.308;5.624;2023-03-19T06:24:18;12.93;;;8.53;;
7195;SDS011;3639;51.308;5.624;2023-03-19T06:26:44;13.47;;;9.17;;
7195;SDS011;3639;51.308;5.624;2023-03-19T06:29:10;14.20;;;8.40;;
7195;SDS011;3639;51.308;5.624;2023-03-19T06:31:36;13.83;;;8.50;;
7195;SDS011;3639;51.308;5.624;2023-03-19T06:34:03;15.47;;;9.13;;
7195;SDS011;3639;51.308;5.624;2023-03-19T06:36:29;15.30;;;9.43;;
7195;SDS011;3639;51.308;5.624;2023-03-19T06:38:55;12.03;;;8.30;;
7195;SDS011;3639;51.308;5.624;2023-03-19T06:41:21;14.07;;;8.73;;
7195;SDS011;3639;51.308;5.624;2023-03-19T06:43:48;13.20;;;8.57;;
7195;SDS011;3639;51.308;5.624;2023-03-19T06:46:14;15.67;;;9.27;;
7195;SDS011;3639;51.308;5.624;2023-03-19T06:48:40;12.93;;;9.17;;
7195;SDS011;3639;51.308;5.624;2023-03-19T06:51:06;16.93;;;9.20;;
7195;SDS011;3639;51.308;5.624;2023-03-19T06:53:31;12.47;;;8.63;;
7195;SDS011;3639;51.308;5.624;2023-03-19T06:55:57;15.77;;;8.93;;
7195;SDS011;3639;51.308;5.624;2023-03-19T06:58:23;13.67;;;8.77;;
7195;SDS011;3639;51.308;5.624;2023-03-19T07:00:48;14.07;;;9.50;;
7195;SDS011;3639;51.308;5.624;2023-03-19T07:03:15;14.17;;;8.43;;
7195;SDS011;3639;51.308;5.624;2023-03-19T07:05:40;14.73;;;8.93;;
7195;SDS011;3639;51.308;5.624;2023-03-19T07:08:06;20.23;;;9.90;;
7195;SDS011;3639;51.308;5.624;2023-03-19T07:10:36;15.30;;;10.20;;
7195;SDS011;3639;51.308;5.624;2023-03-19T07:13:02;17.63;;;10.13;;
7195;SDS011;3639;51.308;5.624;2023-03-19T07:15:28;17.23;;;9.30;;
7195;SDS011;3639;51.308;5.624;2023-03-19T07:17:54;13.17;;;9.30;;
7195;SDS011;3639;51.308;5.624;2023-03-19T07:20:21;15.67;;;9.60;;
7195;SDS011;3639;51.308;5.624;2023-03-19T07:22:49;15.73;;;9.20;;
7195;SDS011;3639;51.308;5.624;2023-03-19T07:25:15;17.23;;;9.73;;
7195;SDS011;3639;51.308;5.624;2023-03-19T07:27:41;14.97;;;8.73;;
7195;SDS011;3639;51.308;5.624;2023-03-19T07:30:07;18.37;;;10.53;;
7195;SDS011;3639;51.308;5.624;2023-03-19T07:32:34;18.73;;;10.47;;
7195;SDS011;3639;51.308;5.624;2023-03-19T07:35:00;19.07;;;11.00;;
7195;SDS011;3639;51.308;5.624;2023-03-19T07:37:25;17.83;;;9.80;;
7195;SDS011;3639;51.308;5.624;2023-03-19T07:39:51;17.93;;;9.50;;
7195;SDS011;3639;51.308;5.624;2023-03-19T07:42:16;20.70;;;10.63;;
7195;SDS011;3639;51.308;5.624;2023-03-19T07:44:42;16.63;;;10.23;;
7195;SDS011;3639;51.308;5.624;2023-03-19T07:47:08;16.73;;;10.60;;
7195;SDS011;3639;51.308;5.624;2023-03-19T07:49:33;18.57;;;10.30;;
7195;SDS011;3639;51.308;5.624;2023-03-19T07:51:59;16.53;;;10.10;;
7195;SDS011;3639;51.308;5.624;2023-03-19T07:54:25;16.30;;;10.13;;
7195;SDS011;3639;51.308;5.624;2023-03-19T07:56:50;16.87;;;10.43;;
7195;SDS011;3639;51.308;5.624;2023-03-19T07:59:16;16.57;;;10.63;;
7195;SDS011;3639;51.308;5.624;2023-03-19T08:01:41;17.03;;;10.67;;
7195;SDS011;3639;51.308;5.624;2023-03-19T08:04:07;17.87;;;10.80;;
7195;SDS011;3639;51.308;5.624;2023-03-19T08:06:33;16.67;;;10.17;;
7195;SDS011;3639;51.308;5.624;2023-03-19T08:08:58;16.10;;;10.07;;
7195;SDS011;3639;51.308;5.624;2023-03-19T08:11:24;17.93;;;10.63;;
7195;SDS011;3639;51.308;5.624;2023-03-19T08:13:50;14.83;;;9.70;;
7195;SDS011;3639;51.308;5.624;2023-03-19T08:16:16;15.20;;;9.70;;
7195;SDS011;3639;51.308;5.624;2023-03-19T08:18:41;14.27;;;9.20;;
7195;SDS011;3639;51.308;5.624;2023-03-19T08:21:07;13.60;;;8.57;;
7195;SDS011;3639;51.308;5.624;2023-03-19T08:23:32;12.50;;;7.60;;
7195;SDS011;3639;51.308;5.624;2023-03-19T08:25:59;13.53;;;6.83;;
7195;SDS011;3639;51.308;5.624;2023-03-19T08:28:25;12.97;;;7.60;;
7195;SDS011;3639;51.308;5.624;2023-03-19T08:30:50;9.47;;;7.13;;
7195;SDS011;3639;51.308;5.624;2023-03-19T08:33:16;7.83;;;5.80;;
7195;SDS011;3639;51.308;5.624;2023-03-19T08:35:42;9.30;;;6.30;;
7195;SDS011;3639;51.308;5.624;2023-03-19T08:38:08;9.07;;;5.47;;
7195;SDS011;3639;51.308;5.624;2023-03-19T08:40:34;9.80;;;4.73;;
7195;SDS011;3639;51.308;5.624;2023-03-19T08:42:59;9.13;;;4.53;;
7195;SDS011;3639;51.308;5.624;2023-03-19T08:45:25;9.33;;;4.80;;
7195;SDS011;3639;51.308;5.624;2023-03-19T08:47:51;8.47;;;4.90;;
7195;SDS011;3639;51.308;5.624;2023-03-19T08:50:16;7.03;;;4.13;;
7195;SDS011;3639;51.308;5.624;2023-03-19T08:52:43;7.40;;;3.87;;
7195;SDS011;3639;51.308;5.624;2023-03-19T08:55:09;6.97;;;3.03;;
7195;SDS011;3639;51.308;5.624;2023-03-19T08:57:35;8.27;;;3.13;;
7195;SDS011;3639;51.308;5.624;2023-03-19T09:00:02;9.40;;;3.17;;
7195;SDS011;3639;51.308;5.624;2023-03-19T09:02:29;9.50;;;2.47;;
7195;SDS011;3639;51.308;5.624;2023-03-19T09:04:55;8.30;;;2.87;;
7195;SDS011;3639;51.308;5.624;2023-03-19T09:07:21;4.27;;;2.07;;
7195;SDS011;3639;51.308;5.624;2023-03-19T09:09:47;6.33;;;2.50;;
7195;SDS011;3639;51.308;5.624;2023-03-19T09:12:13;3.83;;;2.20;;
7195;SDS011;3639;51.308;5.624;2023-03-19T09:14:40;6.60;;;2.60;;
7195;SDS011;3639;51.308;5.624;2023-03-19T09:17:06;7.07;;;2.50;;
7195;SDS011;3639;51.308;5.624;2023-03-19T09:19:32;11.43;;;2.90;;
7195;SDS011;3639;51.308;5.624;2023-03-19T09:21:58;6.43;;;2.60;;
7195;SDS011;3639;51.308;5.624;2023-03-19T09:24:24;6.33;;;2.50;;
7195;SDS011;3639;51.308;5.624;2023-03-19T09:26:50;9.17;;;2.47;;
7195;SDS011;3639;51.308;5.624;2023-03-19T09:29:16;5.30;;;2.73;;
7195;SDS011;3639;51.308;5.624;2023-03-19T09:31:42;4.77;;;2.50;;
7195;SDS011;3639;51.308;5.624;2023-03-19T09:34:08;6.17;;;2.67;;
7195;SDS011;3639;51.308;5.624;2023-03-19T09:36:34;7.63;;;2.20;;
7195;SDS011;3639;51.308;5.624;2023-03-19T09:39:00;3.57;;;2.47;;
7195;SDS011;3639;51.308;5.624;2023-03-19T09:44:30;7.03;;;2.67;;
7195;SDS011;3639;51.308;5.624;2023-03-19T09:49:45;3.57;;;1.60;;
7195;SDS011;3639;51.308;5.624;2023-03-19T09:54:56;5.47;;;1.60;;
7195;SDS011;3639;51.308;5.624;2023-03-19T09:57:42;7.83;;;2.10;;
7195;SDS011;3639;51.308;5.624;2023-03-19T10:00:22;6.67;;;2.13;;
7195;SDS011;3639;51.308;5.624;2023-03-19T10:03:02;3.57;;;2.10;;
7195;SDS011;3639;51.308;5.624;2023-03-19T10:06:10;3.27;;;1.80;;
7195;SDS011;3639;51.308;5.624;2023-03-19T10:08:48;4.77;;;2.40;;
7195;SDS011;3639;51.308;5.624;2023-03-19T10:17:20;3.93;;;1.80;;
7195;SDS011;3639;51.308;5.624;2023-03-19T10:19:58;4.57;;;1.40;;
7195;SDS011;3639;51.308;5.624;2023-03-19T10:22:40;2.97;;;1.90;;
7195;SDS011;3639;51.308;5.624;2023-03-19T10:25:12;1.60;;;1.40;;
7195;SDS011;3639;51.308;5.624;2023-03-19T10:27:44;2.93;;;1.60;;
7195;SDS011;3639;51.308;5.624;2023-03-19T10:30:13;4.03;;;2.17;;
7195;SDS011;3639;51.308;5.624;2023-03-19T10:32:42;4.13;;;2.57;;
7195;SDS011;3639;51.308;5.624;2023-03-19T10:35:17;4.73;;;2.10;;
7195;SDS011;3639;51.308;5.624;2023-03-19T10:37:47;5.70;;;1.80;;
7195;SDS011;3639;51.308;5.624;2023-03-19T10:40:19;3.30;;;2.30;;
7195;SDS011;3639;51.308;5.624;2023-03-19T10:45:37;2.73;;;1.80;;
7195;SDS011;3639;51.308;5.624;2023-03-19T10:48:03;5.50;;;2.17;;
7195;SDS011;3639;51.308;5.624;2023-03-19T10:55:53;3.07;;;1.83;;
7195;SDS011;3639;51.308;5.624;2023-03-19T10:58:21;3.73;;;2.40;;
7195;SDS011;3639;51.308;5.624;2023-03-19T11:00:54;2.77;;;1.87;;
7195;SDS011;3639;51.308;5.624;2023-03-19T11:06:23;2.70;;;2.10;;
7195;SDS011;3639;51.308;5.624;2023-03-19T11:09:01;4.27;;;1.80;;
7195;SDS011;3639;51.308;5.624;2023-03-19T11:11:35;4.93;;;2.00;;
7195;SDS011;3639;51.308;5.624;2023-03-19T11:17:25;3.97;;;1.93;;
7195;SDS011;3639;51.308;5.624;2023-03-19T11:19:39;3.70;;;2.00;;
7195;SDS011;3639;51.308;5.624;2023-03-19T11:24:52;2.07;;;1.50;;
7195;SDS011;3639;51.308;5.624;2023-03-19T11:27:31;6.60;;;1.80;;
7195;SDS011;3639;51.308;5.624;2023-03-19T11:29:59;5.13;;;1.90;;
7195;SDS011;3639;51.308;5.624;2023-03-19T11:34:58;3.87;;;2.10;;
7195;SDS011;3639;51.308;5.624;2023-03-19T11:43:28;2.90;;;1.80;;
7195;SDS011;3639;51.308;5.624;2023-03-19T11:46:06;6.43;;;1.83;;
7195;SDS011;3639;51.308;5.624;2023-03-19T11:56:41;5.13;;;2.27;;
7195;SDS011;3639;51.308;5.624;2023-03-19T12:04:48;5.67;;;1.93;;
7195;SDS011;3639;51.308;5.624;2023-03-19T12:10:26;4.93;;;2.00;;
7195;SDS011;3639;51.308;5.624;2023-03-19T12:15:50;5.60;;;1.87;;
7195;SDS011;3639;51.308;5.624;2023-03-19T12:24:03;4.77;;;2.03;;
7195;SDS011;3639;51.308;5.624;2023-03-19T12:32:03;3.13;;;2.40;;
7195;SDS011;3639;51.308;5.624;2023-03-19T12:34:45;5.03;;;2.23;;
7195;SDS011;3639;51.308;5.624;2023-03-19T12:37:31;4.60;;;2.20;;
7195;SDS011;3639;51.308;5.624;2023-03-19T12:40:13;3.90;;;2.00;;
7195;SDS011;3639;51.308;5.624;2023-03-19T12:42:41;4.10;;;2.07;;
7195;SDS011;3639;51.308;5.624;2023-03-19T12:45:30;3.67;;;1.40;;
7195;SDS011;3639;51.308;5.624;2023-03-19T12:47:58;4.63;;;1.27;;
7195;SDS011;3639;51.308;5.624;2023-03-19T12:50:30;3.73;;;1.60;;
7195;SDS011;3639;51.308;5.624;2023-03-19T12:52:58;3.53;;;1.60;;
7195;SDS011;3639;51.308;5.624;2023-03-19T12:55:30;3.33;;;1.50;;
7195;SDS011;3639;51.308;5.624;2023-03-19T12:58:13;2.40;;;1.40;;
7195;SDS011;3639;51.308;5.624;2023-03-19T13:00:54;2.57;;;1.57;;
7195;SDS011;3639;51.308;5.624;2023-03-19T13:06:25;4.53;;;1.43;;
7195;SDS011;3639;51.308;5.624;2023-03-19T13:14:16;2.70;;;1.30;;
7195;SDS011;3639;51.308;5.624;2023-03-19T13:20:27;5.90;;;1.70;;
7195;SDS011;3639;51.308;5.624;2023-03-19T13:23:12;5.20;;;1.43;;
7195;SDS011;3639;51.308;5.624;2023-03-19T13:25:42;3.67;;;1.30;;
7195;SDS011;3639;51.308;5.624;2023-03-19T13:28:17;3.60;;;1.40;;
7195;SDS011;3639;51.308;5.624;2023-03-19T13:31:06;4.27;;;1.73;;
7195;SDS011;3639;51.308;5.624;2023-03-19T13:33:48;3.97;;;1.40;;
7195;SDS011;3639;51.308;5.624;2023-03-19T13:36:18;3.67;;;1.60;;
7195;SDS011;3639;51.308;5.624;2023-03-19T13:38:48;2.43;;;1.40;;
7195;SDS011;3639;51.308;5.624;2023-03-19T13:42:05;5.10;;;1.70;;
7195;SDS011;3639;51.308;5.624;2023-03-19T13:57:53;2.13;;;1.37;;
7195;SDS011;3639;51.308;5.624;2023-03-19T14:05:47;3.60;;;1.73;;
7195;SDS011;3639;51.308;5.624;2023-03-19T14:08:18;5.43;;;1.80;;
7195;SDS011;3639;51.308;5.624;2023-03-19T14:10:47;5.23;;;2.00;;
7195;SDS011;3639;51.308;5.624;2023-03-19T14:16:21;3.30;;;2.60;;
7195;SDS011;3639;51.308;5.624;2023-03-19T14:18:56;4.17;;;3.07;;
7195;SDS011;3639;51.308;5.624;2023-03-19T14:21:32;5.10;;;3.33;;
7195;SDS011;3639;51.308;5.624;2023-03-19T14:27:23;5.10;;;4.00;;
7195;SDS011;3639;51.308;5.624;2023-03-19T14:29:57;5.43;;;4.03;;
7195;SDS011;3639;51.308;5.624;2023-03-19T14:32:33;5.77;;;4.00;;
7195;SDS011;3639;51.308;5.624;2023-03-19T14:35:05;7.63;;;4.67;;
7195;SDS011;3639;51.308;5.624;2023-03-19T14:45:58;8.40;;;4.87;;
7195;SDS011;3639;51.308;5.624;2023-03-19T14:51:07;6.73;;;5.00;;
7195;SDS011;3639;51.308;5.624;2023-03-19T14:53:42;7.27;;;5.17;;
7195;SDS011;3639;51.308;5.624;2023-03-19T14:56:26;12.47;;;5.40;;
7195;SDS011;3639;51.308;5.624;2023-03-19T14:58:56;5.07;;;4.57;;
7195;SDS011;3639;51.308;5.624;2023-03-19T15:01:28;8.23;;;5.73;;
7195;SDS011;3639;51.308;5.624;2023-03-19T15:03:56;11.23;;;6.97;;
7195;SDS011;3639;51.308;5.624;2023-03-19T15:06:32;9.37;;;6.13;;
7195;SDS011;3639;51.308;5.624;2023-03-19T15:09:00;9.73;;;7.27;;
7195;SDS011;3639;51.308;5.624;2023-03-19T15:11:39;8.50;;;6.40;;
7195;SDS011;3639;51.308;5.624;2023-03-19T15:14:20;7.87;;;5.43;;
7195;SDS011;3639;51.308;5.624;2023-03-19T15:19:37;11.10;;;6.57;;
7195;SDS011;3639;51.308;5.624;2023-03-19T15:22:04;9.50;;;6.10;;
7195;SDS011;3639;51.308;5.624;2023-03-19T15:24:37;8.73;;;6.07;;
7195;SDS011;3639;51.308;5.624;2023-03-19T15:27:14;11.63;;;6.80;;
7195;SDS011;3639;51.308;5.624;2023-03-19T15:29:44;9.40;;;5.97;;
7195;SDS011;3639;51.308;5.624;2023-03-19T15:32:10;8.77;;;5.97;;
7195;SDS011;3639;51.308;5.624;2023-03-19T15:34:36;7.43;;;5.63;;
7195;SDS011;3639;51.308;5.624;2023-03-19T15:37:04;10.73;;;5.70;;
7195;SDS011;3639;51.308;5.624;2023-03-19T15:39:44;8.77;;;6.57;;
7195;SDS011;3639;51.308;5.624;2023-03-19T15:42:15;14.70;;;8.33;;
7195;SDS011;3639;51.308;5.624;2023-03-19T15:44:45;13.00;;;8.40;;
7195;SDS011;3639;51.308;5.624;2023-03-19T15:47:22;13.07;;;8.67;;
7195;SDS011;3639;51.308;5.624;2023-03-19T15:50:09;13.70;;;8.97;;
7195;SDS011;3639;51.308;5.624;2023-03-19T15:52:40;15.10;;;8.63;;
7195;SDS011;3639;51.308;5.624;2023-03-19T15:55:12;13.97;;;9.27;;
7195;SDS011;3639;51.308;5.624;2023-03-19T15:57:39;13.67;;;9.20;;
7195;SDS011;3639;51.308;5.624;2023-03-19T16:00:07;14.03;;;9.37;;
7195;SDS011;3639;51.308;5.624;2023-03-19T16:02:34;14.00;;;9.73;;
7195;SDS011;3639;51.308;5.624;2023-03-19T16:05:20;13.27;;;9.13;;
7195;SDS011;3639;51.308;5.624;2023-03-19T16:07:58;16.03;;;9.23;;
7195;SDS011;3639;51.308;5.624;2023-03-19T16:12:59;11.97;;;9.07;;
7195;SDS011;3639;51.308;5.624;2023-03-19T16:15:42;15.50;;;9.17;;
7195;SDS011;3639;51.308;5.624;2023-03-19T16:18:30;15.23;;;9.47;;
7195;SDS011;3639;51.308;5.624;2023-03-19T16:21:14;13.17;;;9.30;;
7195;SDS011;3639;51.308;5.624;2023-03-19T16:23:43;16.97;;;10.40;;
7195;SDS011;3639;51.308;5.624;2023-03-19T16:28:40;13.13;;;8.70;;
7195;SDS011;3639;51.308;5.624;2023-03-19T16:31:21;13.07;;;8.43;;
7195;SDS011;3639;51.308;5.624;2023-03-19T16:33:53;12.90;;;9.47;;
7195;SDS011;3639;51.308;5.624;2023-03-19T16:36:21;14.93;;;9.77;;
7195;SDS011;3639;51.308;5.624;2023-03-19T16:38:54;18.77;;;11.10;;
7195;SDS011;3639;51.308;5.624;2023-03-19T16:41:30;24.07;;;12.83;;
7195;SDS011;3639;51.308;5.624;2023-03-19T16:43:58;22.10;;;13.17;;
7195;SDS011;3639;51.308;5.624;2023-03-19T16:46:35;25.30;;;12.37;;
7195;SDS011;3639;51.308;5.624;2023-03-19T16:49:01;19.17;;;11.37;;
7195;SDS011;3639;51.308;5.624;2023-03-19T16:51:27;24.20;;;13.07;;
7195;SDS011;3639;51.308;5.624;2023-03-19T16:53:52;20.13;;;10.97;;
7195;SDS011;3639;51.308;5.624;2023-03-19T16:56:18;23.67;;;11.60;;
7195;SDS011;3639;51.308;5.624;2023-03-19T16:58:44;22.73;;;11.93;;
7195;SDS011;3639;51.308;5.624;2023-03-19T17:01:14;20.77;;;10.80;;
7195;SDS011;3639;51.308;5.624;2023-03-19T17:03:42;18.50;;;10.60;;
7195;SDS011;3639;51.308;5.624;2023-03-19T17:06:10;18.93;;;10.60;;
7195;SDS011;3639;51.308;5.624;2023-03-19T17:08:36;21.10;;;10.60;;
7195;SDS011;3639;51.308;5.624;2023-03-19T17:11:02;20.77;;;10.00;;
7195;SDS011;3639;51.308;5.624;2023-03-19T17:13:29;22.43;;;11.33;;
7195;SDS011;3639;51.308;5.624;2023-03-19T17:15:57;20.50;;;10.40;;
7195;SDS011;3639;51.308;5.624;2023-03-19T17:18:27;21.23;;;10.93;;
7195;SDS011;3639;51.308;5.624;2023-03-19T17:21:02;23.10;;;12.00;;
7195;SDS011;3639;51.308;5.624;2023-03-19T17:23:39;18.50;;;10.23;;
7195;SDS011;3639;51.308;5.624;2023-03-19T17:26:12;21.07;;;9.53;;
7195;SDS011;3639;51.308;5.624;2023-03-19T17:28:45;17.17;;;9.30;;
7195;SDS011;3639;51.308;5.624;2023-03-19T17:31:28;13.73;;;8.87;;